M I D A S
Marine Information and Data Acquisition System
Tripno 1071 of the Zeeleeuw from 2006-04-18 08:40:58 to 2006-04-18 10:53:31
Back to CruiseResearch ActivitiesStationsMapUnderway DataData graphs

EquipmentUnitsComment
TimeDGPSUTC
LatitudeDGPSDM.mWGS84
LongitudeDGPSDM.mWGS84
HeadingGyrodeg 
SOGDGPSknotsSpeed over ground
COGDGPSdegCourse over ground
DepthEcho soundermeters200 kHz
Missing or incorrect values are displayed as -999
Navigation data collected by the RV Zeeleeuw from 2006-04-18 06:36:17 to 2006-04-18 11:06:56
                                                                                    Next 1000 lines
Time Latitude Longitude Heading SOG COG Depth
2006-04-18 06:36:27 51°13.602 2°56.1 126.5 0.1 99 5.5
2006-04-18 06:36:31 51°13.602 2°56.1 126.2 0.1 141 5.5
2006-04-18 06:36:37 51°13.602 2°56.101 125.9 -999 64 5.6
2006-04-18 06:36:41 51°13.602 2°56.101 125.5 -999 86 5.6
2006-04-18 06:36:47 51°13.601 2°56.101 125 0.1 173 5.6
2006-04-18 06:36:51 51°13.601 2°56.101 124.1 0.1 172 5.6
2006-04-18 06:36:57 51°13.601 2°56.101 123 0.1 172 5.6
2006-04-18 06:37:02 51°13.601 2°56.1 121.8 0.1 196 5.6
2006-04-18 06:37:07 51°13.601 2°56.1 120.3 0.1 194 5.6
2006-04-18 06:37:11 51°13.601 2°56.1 118.8 0.1 192 5.6
2006-04-18 06:37:17 51°13.601 2°56.1 117.4 0.2 196 5.6
2006-04-18 06:37:22 51°13.601 2°56.1 116.2 0.2 194 5.6
2006-04-18 06:37:27 51°13.601 2°56.1 114.4 0.2 190 5.6
2006-04-18 06:37:32 51°13.6 2°56.1 112.8 0.2 192 5.6
2006-04-18 06:37:36 51°13.6 2°56.1 111.1 0.1 242 5.5
2006-04-18 06:37:42 51°13.6 2°56.099 109.6 0.2 264 5.5
2006-04-18 06:37:47 51°13.601 2°56.098 108.6 0.4 288 5.5
2006-04-18 06:37:51 51°13.601 2°56.097 107.9 0.7 280 5.5
2006-04-18 06:37:57 51°13.601 2°56.094 107.5 0.9 285 5.6
2006-04-18 06:38:02 51°13.601 2°56.092 107.5 1.2 284 5.8
2006-04-18 06:38:06 51°13.602 2°56.089 107.9 1.5 287 6.3
2006-04-18 06:38:12 51°13.602 2°56.084 108.5 1.8 286 -999
2006-04-18 06:38:18 51°13.604 2°56.078 109.3 2.3 289 -999
2006-04-18 06:38:22 51°13.605 2°56.074 110.3 2.6 288 -999
2006-04-18 06:38:27 51°13.606 2°56.068 111 2.9 289 -999
2006-04-18 06:38:32 51°13.608 2°56.061 111.3 3.2 289 -999
2006-04-18 06:38:38 51°13.61 2°56.052 111.5 3.4 290 -999
2006-04-18 06:38:42 51°13.611 2°56.046 111.7 3.6 290 -999
2006-04-18 06:38:47 51°13.613 2°56.038 111.7 3.8 289 -999
2006-04-18 06:38:52 51°13.615 2°56.03 111.9 4 290 -999
2006-04-18 06:38:58 51°13.617 2°56.019 112.2 4.1 290 -999
2006-04-18 06:39:03 51°13.619 2°56.01 112.6 4.2 289 -999
2006-04-18 06:39:07 51°13.62 2°56.004 113.6 4.2 290 -999
2006-04-18 06:39:12 51°13.622 2°55.995 114.4 4.3 291 -999
2006-04-18 06:39:18 51°13.625 2°55.984 115.5 4.4 292 -999
2006-04-18 06:39:22 51°13.627 2°55.977 117.3 4.4 293 -999
2006-04-18 06:39:27 51°13.63 2°55.968 119 4.4 295 -999
2006-04-18 06:39:32 51°13.632 2°55.958 120.4 4.6 295 -999
2006-04-18 06:39:37 51°13.636 2°55.949 121.9 4.7 298 -999
2006-04-18 06:39:43 51°13.64 2°55.938 123.1 4.8 298 -999
2006-04-18 06:39:47 51°13.642 2°55.93 124.2 4.9 299 -999
2006-04-18 06:39:52 51°13.646 2°55.921 125.2 5 301 -999
2006-04-18 06:39:57 51°13.65 2°55.911 126.3 5.1 302 -999
2006-04-18 06:40:02 51°13.654 2°55.902 127.1 5.2 303 -999
2006-04-18 06:40:08 51°13.659 2°55.89 127.9 5.2 303 -999
2006-04-18 06:40:12 51°13.662 2°55.882 128.1 5.2 303 -999
2006-04-18 06:40:17 51°13.666 2°55.873 128.1 5.2 304 -999
2006-04-18 06:40:23 51°13.671 2°55.861 128.1 5.3 304 -999
2006-04-18 06:40:28 51°13.675 2°55.851 127.7 5.3 304 -999
2006-04-18 06:40:32 51°13.678 2°55.844 127.3 5 304 -999
2006-04-18 06:40:37 51°13.681 2°55.836 127 4.7 304 -999
2006-04-18 06:40:43 51°13.686 2°55.826 126.4 4.6 304 -999
2006-04-18 06:40:47 51°13.688 2°55.819 125.6 4.5 304 -999
2006-04-18 06:40:52 51°13.692 2°55.811 124.6 4.4 303 -999
2006-04-18 06:40:57 51°13.695 2°55.803 123.3 4.3 302 4.9
2006-04-18 06:41:03 51°13.698 2°55.794 121.9 4.1 301 -999
2006-04-18 06:41:07 51°13.7 2°55.788 120.4 4.1 300 -999
2006-04-18 06:41:12 51°13.703 2°55.78 118.8 4 299 -999
2006-04-18 06:41:18 51°13.706 2°55.77 116.8 4.1 298 -999
2006-04-18 06:41:22 51°13.708 2°55.764 115.2 4.1 297 -999
2006-04-18 06:41:27 51°13.71 2°55.756 113.2 3.8 295 -999
2006-04-18 06:41:32 51°13.712 2°55.749 111 3.6 294 -999
2006-04-18 06:41:37 51°13.714 2°55.742 109 3.3 292 -999
2006-04-18 06:41:43 51°13.716 2°55.735 106.6 2.9 291 -999
2006-04-18 06:41:47 51°13.717 2°55.731 104.4 2.6 290 -999
2006-04-18 06:41:52 51°13.718 2°55.726 102.7 2.2 289 -999
2006-04-18 06:41:57 51°13.719 2°55.723 100.1 1.7 289 5.1
2006-04-18 06:42:02 51°13.719 2°55.722 96.2 0.9 294 -999
2006-04-18 06:42:08 51°13.72 2°55.721 90.7 0.7 320 -999
2006-04-18 06:42:12 51°13.721 2°55.721 85.1 0.5 15 -999
2006-04-18 06:42:17 51°13.721 2°55.722 77.6 0.8 35 -999
2006-04-18 06:42:22 51°13.723 2°55.724 72.2 1.2 43 10.6
2006-04-18 06:42:27 51°13.724 2°55.726 65.3 1.5 40 -999
2006-04-18 06:42:32 51°13.726 2°55.729 58.2 1.8 39 4.7
2006-04-18 06:42:38 51°13.729 2°55.731 51.3 1.8 32 -999
2006-04-18 06:42:42 51°13.73 2°55.733 45.8 1.6 27 -999
2006-04-18 06:42:47 51°13.732 2°55.734 42.2 1.2 23 10.4
2006-04-18 06:42:52 51°13.733 2°55.734 39.1 0.9 15 -999
2006-04-18 06:42:57 51°13.733 2°55.734 34.4 0.4 349 -999
2006-04-18 06:43:02 51°13.733 2°55.733 31.1 0.3 282 10.4
2006-04-18 06:43:07 51°13.732 2°55.732 28.4 0.7 224 -999
2006-04-18 06:43:12 51°13.731 2°55.73 26.1 1.1 218 10.4
2006-04-18 06:43:17 51°13.729 2°55.729 24 1.6 208 10.4
2006-04-18 06:43:23 51°13.726 2°55.727 22.5 1.7 208 -999
2006-04-18 06:43:27 51°13.725 2°55.725 20.3 1.6 205 -999
2006-04-18 06:43:32 51°13.723 2°55.724 18.8 1.4 207 -999
2006-04-18 06:43:38 51°13.721 2°55.723 17.4 1.1 204 -999
2006-04-18 06:43:43 51°13.721 2°55.722 16 0.8 211 -999
2006-04-18 06:43:47 51°13.72 2°55.721 13.6 0.4 218 -999
2006-04-18 06:43:52 51°13.72 2°55.721 11.5 0.3 276 -999
2006-04-18 06:43:58 51°13.721 2°55.72 8.3 0.4 328 -999
2006-04-18 06:44:03 51°13.722 2°55.72 4.6 0.7 337 -999
2006-04-18 06:44:07 51°13.723 2°55.719 0.5 0.9 341 -999
2006-04-18 06:44:12 51°13.725 2°55.718 355.7 1.4 342 -999
2006-04-18 06:44:17 51°13.727 2°55.717 350 1.7 338 -999
2006-04-18 06:44:22 51°13.73 2°55.715 344.8 2 337 -999
2006-04-18 06:44:28 51°13.733 2°55.712 340.8 2.3 334 -999
2006-04-18 06:44:32 51°13.736 2°55.71 339.3 2.5 335 -999
2006-04-18 06:44:37 51°13.74 2°55.707 338.3 2.8 333 -999
2006-04-18 06:44:43 51°13.744 2°55.703 338.1 3 333 -999
2006-04-18 06:44:47 51°13.747 2°55.701 337.7 3.2 331 10.3
2006-04-18 06:44:52 51°13.752 2°55.697 337.5 3.4 332 10.2
2006-04-18 06:44:57 51°13.756 2°55.693 337.3 3.7 331 10.1
2006-04-18 06:45:02 51°13.761 2°55.689 337.2 3.8 331 10.1
2006-04-18 06:45:06 51°13.765 2°55.685 337.2 4 331 10.2
2006-04-18 06:45:12 51°13.771 2°55.68 337.2 4.2 331 10.2
2006-04-18 06:45:17 51°13.776 2°55.675 337.2 4.4 331 10.2
2006-04-18 06:45:22 51°13.781 2°55.67 337.2 4.5 331 -999
2006-04-18 06:45:27 51°13.787 2°55.665 337.6 4.6 332 10.2
2006-04-18 06:45:32 51°13.793 2°55.66 338 4.8 332 -999
2006-04-18 06:45:37 51°13.799 2°55.655 338.3 4.9 333 10.2
2006-04-18 06:45:42 51°13.805 2°55.65 338.4 5 333 10.2
2006-04-18 06:45:47 51°13.812 2°55.645 338.5 5 333 -999
2006-04-18 06:45:52 51°13.818 2°55.64 338.5 5.1 333 -999
2006-04-18 06:45:57 51°13.825 2°55.635 338.3 5.2 334 10.1
2006-04-18 06:46:02 51°13.831 2°55.63 338 5.3 334 -999
2006-04-18 06:46:07 51°13.838 2°55.625 337.9 5.4 334 10.1
2006-04-18 06:46:13 51°13.846 2°55.619 338.3 5.5 335 -999
2006-04-18 06:46:18 51°13.853 2°55.613 339 5.5 335 -999
2006-04-18 06:46:23 51°13.86 2°55.608 339.5 5.6 335 -999
2006-04-18 06:46:27 51°13.866 2°55.604 339.7 5.6 336 -999
2006-04-18 06:46:32 51°13.873 2°55.599 339.7 5.6 335 -999
2006-04-18 06:46:37 51°13.88 2°55.593 339.3 5.6 334 -999
2006-04-18 06:46:42 51°13.887 2°55.588 338.5 5.5 334 10.1
2006-04-18 06:46:47 51°13.893 2°55.583 337.7 5.4 333 -999
2006-04-18 06:46:52 51°13.9 2°55.577 336.8 5.3 332 -999
2006-04-18 06:46:57 51°13.906 2°55.571 335.3 5.2 331 10.1
2006-04-18 06:47:02 51°13.912 2°55.566 333.8 5 329 10.1
2006-04-18 06:47:07 51°13.917 2°55.56 332.3 4.8 328 10
2006-04-18 06:47:12 51°13.923 2°55.554 330.9 4.7 327 10.1
2006-04-18 06:47:17 51°13.928 2°55.549 329.6 4.6 326 10.1
2006-04-18 06:47:22 51°13.933 2°55.543 328.8 4.5 326 10.1
2006-04-18 06:47:27 51°13.938 2°55.538 328 4.3 325 10.1
2006-04-18 06:47:31 51°13.942 2°55.534 327.5 4.3 326 10.1
2006-04-18 06:47:37 51°13.947 2°55.527 327.2 4.2 325 10
2006-04-18 06:47:42 51°13.952 2°55.522 326.8 4.1 324 10
2006-04-18 06:47:47 51°13.956 2°55.517 326.6 4.1 324 9.9
2006-04-18 06:47:51 51°13.96 2°55.512 325.9 4 323 10
2006-04-18 06:47:57 51°13.965 2°55.506 324.7 3.9 322 9.9
2006-04-18 06:48:02 51°13.969 2°55.501 323.3 3.7 321 9.9
2006-04-18 06:48:07 51°13.973 2°55.496 321.8 3.6 320 9.9
2006-04-18 06:48:12 51°13.976 2°55.491 320.4 3.5 319 9.9
2006-04-18 06:48:17 51°13.98 2°55.486 319 3.3 317 9.8
2006-04-18 06:48:22 51°13.983 2°55.482 317.9 3 319 9.7
2006-04-18 06:48:27 51°13.985 2°55.478 316.8 2.7 317 9.5
2006-04-18 06:48:32 51°13.988 2°55.474 316.5 2.5 318 9.4
2006-04-18 06:48:37 51°13.99 2°55.471 316.9 2.2 318 9.2
2006-04-18 06:48:42 51°13.992 2°55.469 317.4 1.9 320 8.6
2006-04-18 06:48:47 51°13.993 2°55.466 318 1.6 318 8.3
2006-04-18 06:48:51 51°13.995 2°55.465 318.5 1.5 320 8.1
2006-04-18 06:48:57 51°13.996 2°55.462 318.9 1.4 318 8
2006-04-18 06:49:02 51°13.998 2°55.46 319.4 1.3 320 7.9
2006-04-18 06:49:07 51°13.999 2°55.459 319.8 1.1 319 7.9
2006-04-18 06:49:12 51°14 2°55.458 320 0.8 326 7.6
2006-04-18 06:49:17 51°14 2°55.458 319.7 0.5 340 7.6
2006-04-18 06:49:22 51°14.001 2°55.458 319.1 0.4 342 7.5
2006-04-18 06:49:27 51°14.001 2°55.457 320.1 0.5 344 7.7
2006-04-18 06:49:32 51°14.002 2°55.457 320.9 0.5 341 7.6
2006-04-18 06:49:37 51°14.002 2°55.456 321.7 0.5 346 -999
2006-04-18 06:49:42 51°14.003 2°55.456 322.1 0.4 335 -999
2006-04-18 06:49:47 51°14.003 2°55.456 322.4 0.4 339 7.6
2006-04-18 06:49:52 51°14.004 2°55.455 322.7 0.4 329 -999
2006-04-18 06:49:58 51°14.004 2°55.455 323.4 0.4 333 7.8
2006-04-18 06:50:02 51°14.005 2°55.455 323.7 0.4 337 7.8
2006-04-18 06:50:07 51°14.005 2°55.455 324.2 0.3 347 7.6
2006-04-18 06:50:11 51°14.005 2°55.455 324.4 -999 60 7.5
2006-04-18 06:50:17 51°14.005 2°55.455 324.2 0.1 180 7.7
2006-04-18 06:50:22 51°14.005 2°55.455 324 0.1 352 7.6
2006-04-18 06:50:27 51°14.005 2°55.455 323.9 0.1 249 7.5
2006-04-18 06:50:32 51°14.005 2°55.455 324.2 0.1 246 7.7
2006-04-18 06:50:37 51°14.005 2°55.455 325.1 0.1 240 7.6
2006-04-18 06:50:42 51°14.005 2°55.454 326 0.1 242 7.5
2006-04-18 06:50:47 51°14.005 2°55.454 327.5 0.1 249 7.2
2006-04-18 06:50:52 51°14.005 2°55.454 328.5 0.1 245 7.5
2006-04-18 06:50:57 51°14.005 2°55.454 330.2 0.1 257 -999
2006-04-18 06:51:02 51°14.005 2°55.453 331.7 0.1 244 7.5
2006-04-18 06:51:08 51°14.004 2°55.453 333.1 0.1 244 -999
2006-04-18 06:51:13 51°14.004 2°55.452 334.8 0.1 244 7
2006-04-18 06:51:17 51°14.004 2°55.452 336.3 0.1 241 -999
2006-04-18 06:51:22 51°14.004 2°55.452 337.8 0.1 240 7.3
2006-04-18 06:51:27 51°14.004 2°55.452 339.3 0.1 235 6.9
2006-04-18 06:51:32 51°14.004 2°55.451 340.4 0.1 231 6.8
2006-04-18 06:51:37 51°14.004 2°55.451 341.9 0.1 238 6.8
2006-04-18 06:51:42 51°14.004 2°55.451 343.7 0.1 244 6.8
2006-04-18 06:51:47 51°14.004 2°55.451 345.4 0.1 256 6.8
2006-04-18 06:51:52 51°14.004 2°55.451 347.1 0.1 234 6.8
2006-04-18 06:51:57 51°14.004 2°55.451 349.1 0.1 76 6.7
2006-04-18 06:52:02 51°14.004 2°55.451 350.2 0.1 272 6.7
2006-04-18 06:52:07 51°14.004 2°55.451 350.1 0.1 90 6.8
2006-04-18 06:52:12 51°14.004 2°55.451 350.1 0.1 97 6.8
2006-04-18 06:52:17 51°14.004 2°55.452 350.5 -999 89 6.8
2006-04-18 06:52:22 51°14.004 2°55.451 350.8 0.1 108 -999
2006-04-18 06:52:27 51°14.004 2°55.451 351.2 -999 212 6.8
2006-04-18 06:52:32 51°14.004 2°55.451 351.3 -999 237 6.8
2006-04-18 06:52:37 51°14.004 2°55.451 351.3 -999 200 6.8
2006-04-18 06:52:42 51°14.004 2°55.451 351.3 -999 301 6.8
2006-04-18 06:52:47 51°14.004 2°55.451 351.2 -999 298 6.7
2006-04-18 06:52:52 51°14.004 2°55.451 351.1 -999 348 6.8
2006-04-18 06:52:57 51°14.004 2°55.451 350.9 -999 324 -999
2006-04-18 06:53:02 51°14.004 2°55.451 350.8 0.1 28 6.7
2006-04-18 06:53:07 51°14.004 2°55.451 350.6 -999 345 6.7
2006-04-18 06:53:11 51°14.004 2°55.451 350.6 -999 28 6.7
2006-04-18 06:53:16 51°14.004 2°55.451 350.5 -999 205 6.7
2006-04-18 06:53:22 51°14.004 2°55.451 350.5 -999 91 6.7
2006-04-18 06:53:27 51°14.004 2°55.451 350.4 -999 234 6.7
2006-04-18 06:53:32 51°14.004 2°55.451 350.4 -999 213 6.7
2006-04-18 06:53:37 51°14.004 2°55.45 350.4 -999 231 6.8
2006-04-18 06:53:42 51°14.004 2°55.45 350.4 -999 35 6.7
2006-04-18 06:53:47 51°14.004 2°55.45 350.4 -999 346 -999
2006-04-18 06:53:52 51°14.004 2°55.45 350.4 -999 34 6.8
2006-04-18 06:53:57 51°14.003 2°55.45 350.3 -999 276 6.8
2006-04-18 06:54:02 51°14.004 2°55.45 350.3 -999 112 6.8
2006-04-18 06:54:07 51°14.004 2°55.45 350.3 -999 34 6.7
2006-04-18 06:54:12 51°14.004 2°55.45 350.3 -999 245 6.8
2006-04-18 06:54:17 51°14.004 2°55.45 350.3 -999 27 6.7
2006-04-18 06:54:21 51°14.004 2°55.451 350.2 -999 6 6.7
2006-04-18 06:54:27 51°14.004 2°55.451 350.2 -999 234 6.7
2006-04-18 06:54:31 51°14.004 2°55.451 350.2 -999 190 6.7
2006-04-18 06:54:37 51°14.004 2°55.451 350.2 -999 241 6.7
2006-04-18 06:54:42 51°14.004 2°55.451 350.2 -999 204 6.7
2006-04-18 06:54:47 51°14.004 2°55.451 350.2 -999 37 6.7
2006-04-18 06:54:52 51°14.004 2°55.45 350.2 -999 50 6.7
2006-04-18 06:54:57 51°14.004 2°55.45 350.2 -999 2 6.7
2006-04-18 06:55:02 51°14.004 2°55.45 350.2 -999 25 6.7
2006-04-18 06:55:07 51°14.004 2°55.45 350.2 -999 4 6.7
2006-04-18 06:55:11 51°14.004 2°55.45 350.2 -999 78 6.7
2006-04-18 06:55:17 51°14.004 2°55.45 350.2 -999 260 6.7
2006-04-18 06:55:21 51°14.004 2°55.45 350.2 -999 340 6.7
2006-04-18 06:55:27 51°14.004 2°55.45 350.2 -999 41 6.7
2006-04-18 06:55:31 51°14.004 2°55.45 350.2 -999 57 6.6
2006-04-18 06:55:37 51°14.004 2°55.45 350.2 -999 54 6.7
2006-04-18 06:55:42 51°14.004 2°55.45 350.2 -999 197 6.7
2006-04-18 06:55:47 51°14.004 2°55.45 350.2 -999 244 6.7
2006-04-18 06:55:51 51°14.004 2°55.45 350.2 -999 236 6.7
2006-04-18 06:55:57 51°14.004 2°55.45 350.2 -999 302 6.7
2006-04-18 06:56:02 51°14.004 2°55.45 350.1 0.1 35 6.6
2006-04-18 06:56:07 51°14.004 2°55.45 350.1 -999 271 6.7
2006-04-18 06:56:11 51°14.004 2°55.45 350.1 -999 20 6.6
2006-04-18 06:56:17 51°14.004 2°55.45 350.1 -999 137 6.7
2006-04-18 06:56:22 51°14.004 2°55.45 350.1 -999 240 6.7
2006-04-18 06:56:27 51°14.004 2°55.45 350.1 -999 104 6.7
2006-04-18 06:56:32 51°14.004 2°55.45 350.1 -999 310 6.7
2006-04-18 06:56:37 51°14.003 2°55.45 350.1 -999 69 6.7
2006-04-18 06:56:42 51°14.003 2°55.45 350.1 -999 308 6.7
2006-04-18 06:56:47 51°14.004 2°55.45 350.1 -999 165 6.6
2006-04-18 06:56:52 51°14.004 2°55.451 350.1 -999 89 6.7
2006-04-18 06:56:57 51°14.004 2°55.451 350.1 -999 18 6.7
2006-04-18 06:57:02 51°14.004 2°55.451 350.1 -999 31 6.7
2006-04-18 06:57:07 51°14.004 2°55.451 350.1 -999 36 6.6
2006-04-18 06:57:12 51°14.004 2°55.451 350 -999 34 6.6
2006-04-18 06:57:17 51°14.004 2°55.451 350 -999 31 6.7
2006-04-18 06:57:22 51°14.004 2°55.451 350 -999 68 6.7
2006-04-18 06:57:27 51°14.004 2°55.451 350 -999 36 6.7
2006-04-18 06:57:32 51°14.004 2°55.451 350 -999 23 6.6
2006-04-18 06:57:36 51°14.004 2°55.451 350 -999 282 6.7
2006-04-18 06:57:42 51°14.005 2°55.451 350 -999 141 6.7
2006-04-18 06:57:46 51°14.005 2°55.451 350 -999 235 6.7
2006-04-18 06:57:52 51°14.004 2°55.451 350 -999 74 6.6
2006-04-18 06:57:57 51°14.004 2°55.451 350 -999 358 6.7
2006-04-18 06:58:02 51°14.004 2°55.451 349.9 -999 90 6.7
2006-04-18 06:58:07 51°14.004 2°55.451 349.9 -999 233 6.6
2006-04-18 06:58:12 51°14.004 2°55.451 350 -999 96 6.6
2006-04-18 06:58:17 51°14.004 2°55.451 350 -999 24 6.6
2006-04-18 06:58:22 51°14.004 2°55.451 350 -999 240 6.6
2006-04-18 06:58:27 51°14.004 2°55.451 350 -999 215 6.6
2006-04-18 06:58:32 51°14.004 2°55.451 350 -999 54 6.6
2006-04-18 06:58:37 51°14.004 2°55.451 350 -999 355 6.6
2006-04-18 06:58:42 51°14.004 2°55.451 350 -999 174 6.6
2006-04-18 06:58:47 51°14.004 2°55.451 350 -999 42 6.6
2006-04-18 06:58:52 51°14.004 2°55.451 350 -999 146 6.6
2006-04-18 06:58:56 51°14.004 2°55.451 350 -999 43 6.6
2006-04-18 06:59:02 51°14.004 2°55.451 350 -999 41 6.7
2006-04-18 06:59:07 51°14.004 2°55.451 350 -999 35 6.6
2006-04-18 06:59:12 51°14.004 2°55.451 350 -999 52 6.6
2006-04-18 06:59:17 51°14.004 2°55.451 350 -999 66 6.6
2006-04-18 06:59:22 51°14.004 2°55.451 350 -999 3 6.6
2006-04-18 06:59:27 51°14.004 2°55.451 350 -999 238 6.6
2006-04-18 06:59:32 51°14.004 2°55.451 350 -999 155 6.6
2006-04-18 06:59:37 51°14.004 2°55.451 349.9 -999 58 6.6
2006-04-18 06:59:42 51°14.004 2°55.451 349.9 -999 53 6.6
2006-04-18 06:59:47 51°14.004 2°55.451 349.9 -999 223 6.6
2006-04-18 06:59:52 51°14.004 2°55.451 349.9 -999 232 6.6
2006-04-18 06:59:57 51°14.004 2°55.451 349.9 -999 214 6.6
2006-04-18 07:00:02 51°14.004 2°55.45 349.9 -999 214 6.6
2006-04-18 07:00:07 51°14.004 2°55.451 349.9 -999 13 6.6
2006-04-18 07:00:11 51°14.004 2°55.45 349.9 -999 232 6.6
2006-04-18 07:00:16 51°14.004 2°55.45 349.9 -999 222 6.6
2006-04-18 07:00:22 51°14.004 2°55.45 349.9 -999 222 6.6
2006-04-18 07:00:27 51°14.004 2°55.45 349.9 -999 28 6.6
2006-04-18 07:00:32 51°14.004 2°55.45 349.9 -999 324 6.6
2006-04-18 07:00:36 51°14.004 2°55.45 349.9 -999 239 6.6
2006-04-18 07:00:42 51°14.004 2°55.45 349.9 -999 218 6.6
2006-04-18 07:00:47 51°14.004 2°55.45 349.9 -999 213 6.6
2006-04-18 07:00:52 51°14.004 2°55.45 349.9 -999 31 6.6
2006-04-18 07:00:57 51°14.004 2°55.45 349.9 -999 217 6.6
2006-04-18 07:01:02 51°14.004 2°55.45 349.9 -999 50 6.6
2006-04-18 07:01:07 51°14.004 2°55.45 349.9 -999 63 6.6
2006-04-18 07:01:12 51°14.004 2°55.45 349.9 -999 48 6.6
2006-04-18 07:01:17 51°14.004 2°55.45 349.9 -999 45 6.6
2006-04-18 07:01:22 51°14.004 2°55.45 349.9 -999 55 6.6
2006-04-18 07:01:26 51°14.004 2°55.45 349.9 -999 5 6.6
2006-04-18 07:01:32 51°14.004 2°55.45 349.9 -999 77 6.6
2006-04-18 07:01:37 51°14.004 2°55.451 349.9 -999 45 6.6
2006-04-18 07:01:42 51°14.004 2°55.451 349.8 -999 19 6.6
2006-04-18 07:01:47 51°14.005 2°55.451 349.8 -999 30 6.6
2006-04-18 07:01:51 51°14.005 2°55.451 349.8 -999 37 6.6
2006-04-18 07:01:57 51°14.005 2°55.451 349.8 -999 48 6.6
2006-04-18 07:02:02 51°14.004 2°55.451 349.8 -999 51 6.6
2006-04-18 07:02:07 51°14.004 2°55.451 349.8 -999 38 6.6
2006-04-18 07:02:11 51°14.004 2°55.451 349.8 0.1 58 6.6
2006-04-18 07:02:16 51°14.005 2°55.451 349.8 0.1 47 6.6
2006-04-18 07:02:22 51°14.005 2°55.451 349.8 -999 51 6.6
2006-04-18 07:02:27 51°14.005 2°55.451 349.8 -999 316 6.6
2006-04-18 07:02:32 51°14.004 2°55.45 349.8 -999 204 6.6
2006-04-18 07:02:37 51°14.004 2°55.45 349.8 -999 209 6.6
2006-04-18 07:02:42 51°14.004 2°55.45 349.8 -999 242 6.6
2006-04-18 07:02:47 51°14.004 2°55.45 349.8 -999 55 6.6
2006-04-18 07:02:51 51°14.004 2°55.45 349.8 -999 38 6.6
2006-04-18 07:02:56 51°14.004 2°55.45 349.8 -999 336 6.5
2006-04-18 07:03:02 51°14.004 2°55.45 349.8 -999 169 6.6
2006-04-18 07:03:07 51°14.004 2°55.45 349.8 -999 220 6.6
2006-04-18 07:03:12 51°14.004 2°55.45 349.8 -999 204 6.6
2006-04-18 07:03:17 51°14.004 2°55.45 349.8 -999 188 6.6
2006-04-18 07:03:22 51°14.004 2°55.45 349.8 -999 46 6.6
2006-04-18 07:03:27 51°14.004 2°55.45 349.8 -999 48 6.6
2006-04-18 07:03:32 51°14.004 2°55.45 349.8 -999 42 6.6
2006-04-18 07:03:36 51°14.004 2°55.45 349.8 -999 240 6.6
2006-04-18 07:03:42 51°14.004 2°55.45 349.8 -999 32 6.6
2006-04-18 07:03:47 51°14.004 2°55.45 349.8 0.1 314 6.6
2006-04-18 07:03:51 51°14.004 2°55.45 349.8 0.2 19 6.7
2006-04-18 07:03:57 51°14.005 2°55.45 349.8 0.2 358 6.6
2006-04-18 07:04:02 51°14.005 2°55.451 350.1 0.2 8 6.6
2006-04-18 07:04:06 51°14.005 2°55.451 350.4 0.3 4 6.6
2006-04-18 07:04:12 51°14.006 2°55.451 350.7 0.3 348 6.6
2006-04-18 07:04:17 51°14.006 2°55.451 351.2 0.3 -999 6.7
2006-04-18 07:04:22 51°14.007 2°55.45 351.4 0.2 350 6.7
2006-04-18 07:04:27 51°14.007 2°55.45 351.7 0.2 2 6.7
2006-04-18 07:04:32 51°14.007 2°55.45 351.8 0.1 243 -999
2006-04-18 07:04:37 51°14.007 2°55.45 351.3 0.1 181 -999
2006-04-18 07:04:42 51°14.007 2°55.45 350.6 0.1 245 -999
2006-04-18 07:04:47 51°14.007 2°55.45 350.2 -999 345 6.6
2006-04-18 07:04:52 51°14.007 2°55.45 349.9 0.1 325 -999
2006-04-18 07:04:57 51°14.007 2°55.45 350.2 0.1 30 -999
2006-04-18 07:05:02 51°14.007 2°55.45 350.6 0.1 242 -999
2006-04-18 07:05:07 51°14.007 2°55.45 350.5 -999 265 6.6
2006-04-18 07:05:12 51°14.007 2°55.45 350.4 -999 93 -999
2006-04-18 07:05:18 51°14.007 2°55.45 350.4 -999 58 -999
2006-04-18 07:05:23 51°14.007 2°55.45 350.5 -999 257 -999
2006-04-18 07:05:27 51°14.007 2°55.449 350.5 0.1 258 -999
2006-04-18 07:05:32 51°14.007 2°55.45 350.5 -999 288 6.6
2006-04-18 07:05:37 51°14.007 2°55.449 350.4 -999 298 6.5
2006-04-18 07:05:42 51°14.007 2°55.45 350.4 -999 24 6.6
2006-04-18 07:05:47 51°14.007 2°55.45 350.4 -999 47 6.6
2006-04-18 07:05:52 51°14.007 2°55.45 350.3 -999 51 -999
2006-04-18 07:05:58 51°14.006 2°55.449 350.3 -999 243 6.6
2006-04-18 07:06:02 51°14.006 2°55.449 350.3 -999 203 -999
2006-04-18 07:06:07 51°14.006 2°55.449 350.3 -999 214 -999
2006-04-18 07:06:12 51°14.007 2°55.45 350.3 -999 54 -999
2006-04-18 07:06:18 51°14.007 2°55.45 350.3 -999 356 -999
2006-04-18 07:06:23 51°14.007 2°55.45 350.3 -999 47 -999
2006-04-18 07:06:27 51°14.007 2°55.45 350.3 -999 23 -999
2006-04-18 07:06:32 51°14.007 2°55.45 350.3 -999 43 -999
2006-04-18 07:06:38 51°14.007 2°55.45 350.3 -999 76 -999
2006-04-18 07:06:43 51°14.007 2°55.45 350.3 -999 246 -999
2006-04-18 07:06:48 51°14.007 2°55.45 350.3 -999 178 -999
2006-04-18 07:06:52 51°14.007 2°55.45 350.3 -999 59 -999
2006-04-18 07:06:57 51°14.007 2°55.449 350.2 -999 219 -999
2006-04-18 07:07:03 51°14.006 2°55.449 350.2 -999 50 -999
2006-04-18 07:07:07 51°14.007 2°55.45 350.2 -999 114 -999
2006-04-18 07:07:12 51°14.007 2°55.45 350.2 -999 17 -999
2006-04-18 07:07:18 51°14.007 2°55.45 350.2 0.1 46 -999
2006-04-18 07:07:23 51°14.007 2°55.45 350.2 0.1 52 -999
2006-04-18 07:07:27 51°14.007 2°55.451 350.2 0.1 48 -999
2006-04-18 07:07:32 51°14.007 2°55.451 350.2 0.1 47 6.6
2006-04-18 07:07:38 51°14.007 2°55.45 350.2 -999 46 -999
2006-04-18 07:07:42 51°14.007 2°55.45 350.2 0.1 47 -999
2006-04-18 07:07:47 51°14.007 2°55.45 350.2 -999 49 -999
2006-04-18 07:07:52 51°14.007 2°55.45 350.2 -999 90 6.5
2006-04-18 07:07:57 51°14.007 2°55.45 350.2 -999 45 6.5
2006-04-18 07:08:02 51°14.007 2°55.45 350.2 -999 70 -999
2006-04-18 07:08:07 51°14.007 2°55.45 350.2 -999 50 6.5
2006-04-18 07:08:12 51°14.007 2°55.45 350.2 -999 139 6.5
2006-04-18 07:08:17 51°14.007 2°55.45 350.2 -999 18 6.5
2006-04-18 07:08:22 51°14.007 2°55.45 350.1 -999 52 6.5
2006-04-18 07:08:27 51°14.007 2°55.451 350.1 -999 19 6.5
2006-04-18 07:08:32 51°14.007 2°55.45 350.1 -999 30 -999
2006-04-18 07:08:38 51°14.007 2°55.45 350.1 -999 136 -999
2006-04-18 07:08:43 51°14.007 2°55.45 350.1 -999 15 -999
2006-04-18 07:08:48 51°14.007 2°55.45 350.1 -999 85 -999
2006-04-18 07:08:52 51°14.007 2°55.45 350.1 -999 158 -999
2006-04-18 07:08:57 51°14.007 2°55.45 350.1 -999 48 -999
2006-04-18 07:09:03 51°14.007 2°55.45 350.1 -999 187 -999
2006-04-18 07:09:07 51°14.007 2°55.45 350 -999 28 -999
2006-04-18 07:09:13 51°14.007 2°55.45 349.9 -999 44 -999
2006-04-18 07:09:17 51°14.007 2°55.45 349.8 -999 45 6.5
2006-04-18 07:09:22 51°14.007 2°55.45 349.8 0.1 42 -999
2006-04-18 07:09:27 51°14.007 2°55.45 349.6 -999 44 -999
2006-04-18 07:09:33 51°14.007 2°55.45 349.6 0.1 46 -999
2006-04-18 07:09:37 51°14.007 2°55.45 349.5 0.1 47 -999
2006-04-18 07:09:43 51°14.007 2°55.45 349.5 -999 53 -999
2006-04-18 07:09:47 51°14.007 2°55.45 349.4 -999 54 -999
2006-04-18 07:09:53 51°14.007 2°55.45 349.4 -999 239 -999
2006-04-18 07:09:57 51°14.007 2°55.45 349.4 -999 334 -999
2006-04-18 07:10:03 51°14.007 2°55.45 349.4 -999 48 -999
2006-04-18 07:10:07 51°14.007 2°55.45 349.4 -999 313 -999
2006-04-18 07:10:13 51°14.007 2°55.45 349.4 -999 65 -999
2006-04-18 07:10:18 51°14.007 2°55.45 349.4 -999 50 -999
2006-04-18 07:10:23 51°14.007 2°55.45 349.4 0.1 44 -999
2006-04-18 07:10:27 51°14.007 2°55.45 349.4 -999 67 -999
2006-04-18 07:10:32 51°14.007 2°55.45 349.4 0.1 56 -999
2006-04-18 07:10:38 51°14.007 2°55.45 349.4 0.1 46 -999
2006-04-18 07:10:43 51°14.007 2°55.45 349.4 0.1 50 -999
2006-04-18 07:10:47 51°14.007 2°55.45 349.3 0.1 50 -999
2006-04-18 07:10:53 51°14.007 2°55.45 349.3 0.1 42 -999
2006-04-18 07:10:58 51°14.007 2°55.45 349.3 -999 74 -999
2006-04-18 07:11:03 51°14.007 2°55.45 349.3 0.1 38 -999
2006-04-18 07:11:07 51°14.007 2°55.45 349.3 -999 48 -999
2006-04-18 07:11:12 51°14.007 2°55.45 349.3 0.1 53 -999
2006-04-18 07:11:17 51°14.007 2°55.45 349.3 -999 50 -999
2006-04-18 07:11:22 51°14.007 2°55.45 349.3 0.1 48 -999
2006-04-18 07:11:27 51°14.007 2°55.45 349.3 -999 260 -999
2006-04-18 07:11:32 51°14.007 2°55.45 349.3 -999 66 -999
2006-04-18 07:11:38 51°14.007 2°55.45 349.3 -999 33 -999
2006-04-18 07:11:43 51°14.007 2°55.449 349.3 -999 244 -999
2006-04-18 07:11:48 51°14.007 2°55.449 349.3 -999 283 -999
2006-04-18 07:11:52 51°14.007 2°55.449 349.3 -999 115 -999
2006-04-18 07:11:58 51°14.007 2°55.449 349.3 -999 265 -999
2006-04-18 07:12:03 51°14.007 2°55.449 349.3 -999 43 -999
2006-04-18 07:12:07 51°14.007 2°55.449 349.3 -999 39 -999
2006-04-18 07:12:12 51°14.007 2°55.449 349.3 -999 9 -999
2006-04-18 07:12:17 51°14.007 2°55.449 349.3 -999 69 -999
2006-04-18 07:12:23 51°14.007 2°55.449 349.3 -999 202 -999
2006-04-18 07:12:27 51°14.007 2°55.449 349.3 -999 241 -999
2006-04-18 07:12:33 51°14.007 2°55.449 349.3 -999 59 -999
2006-04-18 07:12:38 51°14.007 2°55.449 349.3 -999 45 -999
2006-04-18 07:12:43 51°14.007 2°55.449 349.2 -999 57 -999
2006-04-18 07:12:47 51°14.007 2°55.449 349.2 -999 35 -999
2006-04-18 07:12:53 51°14.007 2°55.449 349.2 -999 97 -999
2006-04-18 07:12:58 51°14.007 2°55.449 349.2 -999 56 -999
2006-04-18 07:13:03 51°14.006 2°55.449 349.2 -999 37 -999
2006-04-18 07:13:08 51°14.006 2°55.448 349.3 -999 204 -999
2006-04-18 07:13:12 51°14.006 2°55.448 349.3 -999 168 -999
2006-04-18 07:13:18 51°14.006 2°55.448 349.3 -999 201 -999
2006-04-18 07:13:22 51°14.006 2°55.448 349.3 -999 22 6.7
2006-04-18 07:13:28 51°14.006 2°55.449 349.4 -999 116 -999
2006-04-18 07:13:32 51°14.006 2°55.449 349.4 -999 108 -999
2006-04-18 07:13:38 51°14.007 2°55.449 349.4 -999 81 -999
2006-04-18 07:13:43 51°14.007 2°55.449 349.4 -999 35 -999
2006-04-18 07:13:47 51°14.007 2°55.449 349.4 0.1 52 -999
2006-04-18 07:13:53 51°14.007 2°55.449 349.4 0.1 57 6.4
2006-04-18 07:13:57 51°14.007 2°55.449 349.4 -999 50 -999
2006-04-18 07:14:02 51°14.007 2°55.449 349.4 -999 55 -999
2006-04-18 07:14:07 51°14.007 2°55.449 349.4 -999 46 6.4
2006-04-18 07:14:12 51°14.007 2°55.449 349.4 -999 72 -999
2006-04-18 07:14:17 51°14.007 2°55.449 349.4 -999 201 -999
2006-04-18 07:14:22 51°14.007 2°55.449 349.5 -999 60 -999
2006-04-18 07:14:27 51°14.007 2°55.449 349.5 -999 237 6.4
2006-04-18 07:14:32 51°14.007 2°55.449 349.5 -999 72 6.5
2006-04-18 07:14:37 51°14.007 2°55.449 349.5 -999 94 -999
2006-04-18 07:14:42 51°14.007 2°55.449 349.5 -999 267 6.4
2006-04-18 07:14:48 51°14.007 2°55.449 349.5 -999 48 6.4
2006-04-18 07:14:52 51°14.007 2°55.449 349.5 -999 344 6.4
2006-04-18 07:14:57 51°14.007 2°55.449 349.5 -999 37 6.4
2006-04-18 07:15:02 51°14.007 2°55.449 349.5 -999 288 6.4
2006-04-18 07:15:07 51°14.007 2°55.449 349.5 -999 27 6.4
2006-04-18 07:15:12 51°14.007 2°55.449 349.5 -999 95 6.4
2006-04-18 07:15:17 51°14.007 2°55.449 349.4 -999 272 6.4
2006-04-18 07:15:22 51°14.007 2°55.449 349.4 -999 89 6.5
2006-04-18 07:15:27 51°14.007 2°55.449 349.4 -999 66 6.4
2006-04-18 07:15:32 51°14.007 2°55.449 349.4 -999 238 6.5
2006-04-18 07:15:37 51°14.007 2°55.449 349.4 -999 281 6.5
2006-04-18 07:15:42 51°14.007 2°55.45 349.4 0.1 53 6.5
2006-04-18 07:15:47 51°14.007 2°55.45 349.4 0.1 49 6.4
2006-04-18 07:15:52 51°14.007 2°55.449 349.4 -999 73 6.4
2006-04-18 07:15:57 51°14.007 2°55.449 349.4 -999 73 6.4
2006-04-18 07:16:02 51°14.007 2°55.449 349.2 -999 254 6.4
2006-04-18 07:16:07 51°14.007 2°55.449 349.2 -999 21 6.4
2006-04-18 07:16:11 51°14.006 2°55.449 349.2 -999 256 6.4
2006-04-18 07:16:17 51°14.006 2°55.449 349.2 -999 51 6.4
2006-04-18 07:16:22 51°14.006 2°55.449 349.2 -999 154 6.4
2006-04-18 07:16:27 51°14.006 2°55.449 349.2 0.1 60 6.4
2006-04-18 07:16:32 51°14.006 2°55.449 349.2 -999 181 6.4
2006-04-18 07:16:37 51°14.007 2°55.449 349.2 0.1 47 6.5
2006-04-18 07:16:42 51°14.007 2°55.45 349.2 -999 40 6.5
2006-04-18 07:16:47 51°14.007 2°55.45 349.2 0.1 46 6.4
2006-04-18 07:16:52 51°14.007 2°55.45 349.2 -999 34 6.4
2006-04-18 07:16:57 51°14.007 2°55.45 349.2 0.1 59 6.4
2006-04-18 07:17:02 51°14.007 2°55.45 349.2 -999 261 6.4
2006-04-18 07:17:07 51°14.007 2°55.45 349.2 -999 21 6.4
2006-04-18 07:17:11 51°14.007 2°55.45 349.2 -999 18 6.4
2006-04-18 07:17:16 51°14.007 2°55.45 349.2 -999 261 6.4
2006-04-18 07:17:22 51°14.007 2°55.45 349.2 -999 47 6.4
2006-04-18 07:17:27 51°14.007 2°55.45 349.2 -999 36 6.4
2006-04-18 07:17:32 51°14.007 2°55.45 349.2 -999 39 6.4
2006-04-18 07:17:37 51°14.007 2°55.45 349.2 0.1 46 6.4
2006-04-18 07:17:42 51°14.007 2°55.45 349.1 -999 16 6.4
2006-04-18 07:17:47 51°14.007 2°55.45 349.1 -999 168 6.4
2006-04-18 07:17:51 51°14.007 2°55.449 349.1 -999 231 6.4
2006-04-18 07:17:57 51°14.007 2°55.449 349.1 -999 104 6.4
2006-04-18 07:18:02 51°14.007 2°55.449 349.1 -999 231 6.4
2006-04-18 07:18:07 51°14.006 2°55.449 349.1 -999 55 6.4
2006-04-18 07:18:12 51°14.006 2°55.449 349.1 -999 196 6.4
2006-04-18 07:18:17 51°14.006 2°55.449 349.1 -999 242 6.4
2006-04-18 07:18:22 51°14.006 2°55.449 349.1 -999 286 6.4
2006-04-18 07:18:27 51°14.006 2°55.449 349.1 -999 217 6.3
2006-04-18 07:18:32 51°14.006 2°55.449 349.1 -999 54 6.4
2006-04-18 07:18:37 51°14.006 2°55.449 349.1 -999 219 -999
2006-04-18 07:18:42 51°14.006 2°55.449 349.1 0.1 62 6.3
2006-04-18 07:18:47 51°14.007 2°55.449 349.1 -999 328 6.4
2006-04-18 07:18:52 51°14.007 2°55.45 349 -999 1 6.4
2006-04-18 07:18:57 51°14.006 2°55.449 349 -999 31 6.4
2006-04-18 07:19:02 51°14.006 2°55.449 349 -999 246 6.4
2006-04-18 07:19:07 51°14.006 2°55.449 349 -999 55 6.4
2006-04-18 07:19:13 51°14.006 2°55.449 349 -999 20 -999
2006-04-18 07:19:17 51°14.006 2°55.449 349 -999 71 6.4
2006-04-18 07:19:22 51°14.007 2°55.449 349 -999 125 6.4
2006-04-18 07:19:27 51°14.007 2°55.449 349 -999 72 6.4
2006-04-18 07:19:32 51°14.007 2°55.449 349.1 -999 235 -999
2006-04-18 07:19:37 51°14.007 2°55.449 349.1 -999 196 6.4
2006-04-18 07:19:42 51°14.007 2°55.449 349.1 -999 67 6.5
2006-04-18 07:19:47 51°14.007 2°55.449 349.1 -999 210 6.3
2006-04-18 07:19:52 51°14.007 2°55.449 349 -999 145 6.3
2006-04-18 07:19:57 51°14.007 2°55.449 349 -999 354 6.4
2006-04-18 07:20:03 51°14.007 2°55.449 349 -999 36 -999
2006-04-18 07:20:07 51°14.007 2°55.449 349 -999 355 6.3
2006-04-18 07:20:11 51°14.007 2°55.449 349 -999 5 6.3
2006-04-18 07:20:17 51°14.007 2°55.449 349 0.1 39 6.4
2006-04-18 07:20:22 51°14.007 2°55.449 349 -999 251 6.4
2006-04-18 07:20:27 51°14.007 2°55.449 349 -999 67 -999
2006-04-18 07:20:32 51°14.007 2°55.449 349 -999 3 -999
2006-04-18 07:20:37 51°14.007 2°55.449 348.9 -999 328 6.4
2006-04-18 07:20:42 51°14.007 2°55.449 348.9 -999 250 6.3
2006-04-18 07:20:47 51°14.007 2°55.449 348.9 -999 345 6.5
2006-04-18 07:20:51 51°14.007 2°55.449 348.9 -999 324 6.3
2006-04-18 07:20:57 51°14.007 2°55.449 348.9 -999 262 6.4
2006-04-18 07:21:02 51°14.006 2°55.449 348.9 -999 177 6.3
2006-04-18 07:21:07 51°14.006 2°55.449 348.9 -999 40 6.3
2006-04-18 07:21:12 51°14.006 2°55.449 348.9 -999 55 6.4
2006-04-18 07:21:17 51°14.007 2°55.449 348.9 -999 10 6.3
2006-04-18 07:21:22 51°14.006 2°55.449 348.9 -999 144 6.3
2006-04-18 07:21:28 51°14.007 2°55.449 348.9 -999 296 -999
2006-04-18 07:21:32 51°14.006 2°55.449 348.9 -999 305 6.4
2006-04-18 07:21:36 51°14.006 2°55.449 348.9 -999 227 -999
2006-04-18 07:21:42 51°14.007 2°55.449 348.9 -999 225 6.4
2006-04-18 07:21:47 51°14.007 2°55.449 348.9 -999 132 -999
2006-04-18 07:21:52 51°14.006 2°55.449 348.9 -999 82 6.4
2006-04-18 07:21:57 51°14.007 2°55.449 348.9 -999 350 6.4
2006-04-18 07:22:02 51°14.007 2°55.449 348.8 -999 29 6.4
2006-04-18 07:22:07 51°14.007 2°55.449 348.8 -999 294 6.3
2006-04-18 07:22:12 51°14.006 2°55.449 348.8 -999 -999 -999
2006-04-18 07:22:18 51°14.006 2°55.449 348.8 -999 216 -999
2006-04-18 07:22:23 51°14.007 2°55.449 348.8 -999 122 -999
2006-04-18 07:22:28 51°14.007 2°55.449 348.8 -999 197 -999
2006-04-18 07:22:32 51°14.007 2°55.449 348.8 -999 87 -999
2006-04-18 07:22:38 51°14.007 2°55.449 348.8 0.1 41 6.3
2006-04-18 07:22:42 51°14.007 2°55.449 348.8 -999 35 -999
2006-04-18 07:22:48 51°14.007 2°55.449 348.8 -999 97 -999
2006-04-18 07:22:52 51°14.007 2°55.449 348.8 -999 213 6.3
2006-04-18 07:22:57 51°14.007 2°55.449 348.8 -999 10 6.6
2006-04-18 07:23:02 51°14.007 2°55.449 348.8 -999 215 6.3
2006-04-18 07:23:07 51°14.007 2°55.449 348.8 -999 38 6.3
2006-04-18 07:23:12 51°14.007 2°55.449 348.8 -999 49 -999
2006-04-18 07:23:18 51°14.007 2°55.449 348.7 -999 207 -999
2006-04-18 07:23:23 51°14.007 2°55.449 348.7 -999 37 -999
2006-04-18 07:23:27 51°14.007 2°55.449 348.7 -999 198 -999
2006-04-18 07:23:33 51°14.007 2°55.449 348.7 -999 36 -999
2006-04-18 07:23:37 51°14.007 2°55.448 348.7 -999 -999 -999
2006-04-18 07:23:42 51°14.007 2°55.448 348.7 -999 273 -999
2006-04-18 07:23:48 51°14.007 2°55.448 348.7 -999 70 -999
2006-04-18 07:23:52 51°14.007 2°55.448 348.7 -999 233 -999
2006-04-18 07:23:58 51°14.007 2°55.448 348.7 -999 32 -999
2006-04-18 07:24:02 51°14.007 2°55.448 348.7 -999 281 6.3
2006-04-18 07:24:06 51°14.007 2°55.448 348.7 -999 74 -999
2006-04-18 07:24:12 51°14.007 2°55.448 348.7 -999 335 6.3
2006-04-18 07:24:18 51°14.007 2°55.448 348.7 -999 33 -999
2006-04-18 07:24:23 51°14.007 2°55.448 348.8 -999 202 -999
2006-04-18 07:24:27 51°14.007 2°55.448 348.8 -999 194 6.3
2006-04-18 07:24:32 51°14.007 2°55.448 348.8 -999 137 6.3
2006-04-18 07:24:37 51°14.007 2°55.448 348.8 -999 82 6.3
2006-04-18 07:24:42 51°14.007 2°55.448 348.8 -999 61 6.3
2006-04-18 07:24:47 51°14.007 2°55.448 348.8 -999 81 6.3
2006-04-18 07:24:52 51°14.007 2°55.448 348.8 -999 219 6.3
2006-04-18 07:24:57 51°14.007 2°55.448 348.8 -999 38 6.3
2006-04-18 07:25:02 51°14.007 2°55.448 348.8 -999 276 6.3
2006-04-18 07:25:07 51°14.007 2°55.448 348.8 -999 102 6.3
2006-04-18 07:25:12 51°14.007 2°55.448 348.8 -999 169 6.3
2006-04-18 07:25:17 51°14.007 2°55.449 348.8 -999 204 6.3
2006-04-18 07:25:21 51°14.007 2°55.449 348.8 -999 54 6.3
2006-04-18 07:25:27 51°14.007 2°55.449 348.8 -999 161 6.4
2006-04-18 07:25:32 51°14.007 2°55.449 348.8 -999 140 6.3
2006-04-18 07:25:37 51°14.007 2°55.449 348.8 -999 292 6.4
2006-04-18 07:25:42 51°14.007 2°55.449 348.8 -999 343 6.3
2006-04-18 07:25:47 51°14.007 2°55.449 348.8 -999 345 6.3
2006-04-18 07:25:52 51°14.007 2°55.449 348.8 -999 351 6.2
2006-04-18 07:25:57 51°14.007 2°55.449 348.8 -999 19 6.2
2006-04-18 07:26:02 51°14.007 2°55.449 348.8 -999 256 6.4
2006-04-18 07:26:06 51°14.007 2°55.449 348.8 -999 118 6.2
2006-04-18 07:26:12 51°14.007 2°55.449 348.8 -999 51 6.3
2006-04-18 07:26:17 51°14.007 2°55.449 348.8 -999 61 6.2
2006-04-18 07:26:22 51°14.007 2°55.449 348.8 -999 33 6.2
2006-04-18 07:26:27 51°14.007 2°55.449 348.8 -999 297 6.3
2006-04-18 07:26:32 51°14.007 2°55.449 348.8 -999 40 6.2
2006-04-18 07:26:37 51°14.007 2°55.45 348.8 -999 345 6.2
2006-04-18 07:26:42 51°14.007 2°55.45 348.8 -999 39 -999
2006-04-18 07:26:47 51°14.007 2°55.45 348.8 -999 343 6.3
2006-04-18 07:26:52 51°14.006 2°55.45 348.8 -999 131 6.3
2006-04-18 07:26:57 51°14.006 2°55.449 348.8 -999 190 6.3
2006-04-18 07:27:02 51°14.006 2°55.449 348.8 -999 191 6.3
2006-04-18 07:27:07 51°14.006 2°55.449 348.8 -999 205 6.3
2006-04-18 07:27:12 51°14.006 2°55.449 348.8 -999 152 6.3
2006-04-18 07:27:17 51°14.006 2°55.449 348.8 -999 263 6.3
2006-04-18 07:27:22 51°14.006 2°55.449 348.8 -999 81 -999
2006-04-18 07:27:27 51°14.006 2°55.449 348.8 -999 313 -999
2006-04-18 07:27:32 51°14.006 2°55.449 348.8 -999 286 -999
2006-04-18 07:27:37 51°14.006 2°55.449 348.8 -999 22 6.2
2006-04-18 07:27:43 51°14.006 2°55.449 348.8 -999 122 6.2
2006-04-18 07:27:47 51°14.006 2°55.449 348.8 -999 284 -999
2006-04-18 07:27:52 51°14.006 2°55.449 348.8 -999 71 6.2
2006-04-18 07:27:56 51°14.006 2°55.449 348.8 -999 204 6.3
2006-04-18 07:28:02 51°14.006 2°55.449 348.8 -999 170 -999
2006-04-18 07:28:07 51°14.006 2°55.449 348.8 -999 263 6.3
2006-04-18 07:28:12 51°14.006 2°55.45 348.8 -999 181 -999
2006-04-18 07:28:18 51°14.006 2°55.45 348.8 -999 149 -999
2006-04-18 07:28:23 51°14.006 2°55.449 348.8 -999 220 -999
2006-04-18 07:28:27 51°14.006 2°55.449 348.8 -999 299 -999
2006-04-18 07:28:33 51°14.006 2°55.45 348.8 -999 293 -999
2006-04-18 07:28:38 51°14.006 2°55.45 348.8 -999 47 -999
2006-04-18 07:28:42 51°14.006 2°55.45 348.8 -999 356 -999
2006-04-18 07:28:47 51°14.006 2°55.45 348.8 -999 351 -999
2006-04-18 07:28:52 51°14.006 2°55.45 348.8 -999 346 -999
2006-04-18 07:28:58 51°14.006 2°55.45 348.8 -999 261 -999
2006-04-18 07:29:03 51°14.006 2°55.45 348.8 -999 276 -999
2006-04-18 07:29:07 51°14.006 2°55.45 348.8 -999 41 -999
2006-04-18 07:29:12 51°14.006 2°55.45 348.8 -999 274 -999
2006-04-18 07:29:17 51°14.006 2°55.45 348.8 -999 348 -999
2006-04-18 07:29:23 51°14.006 2°55.45 348.8 -999 247 -999
2006-04-18 07:29:27 51°14.006 2°55.45 348.8 -999 84 6.2
2006-04-18 07:29:32 51°14.006 2°55.45 348.8 -999 167 -999
2006-04-18 07:29:38 51°14.006 2°55.45 348.8 -999 146 -999
2006-04-18 07:29:43 51°14.007 2°55.45 348.8 -999 33 -999
2006-04-18 07:29:47 51°14.006 2°55.45 348.8 -999 248 -999
2006-04-18 07:29:53 51°14.006 2°55.45 348.8 -999 105 -999
2006-04-18 07:29:58 51°14.006 2°55.45 348.8 -999 45 -999
2006-04-18 07:30:03 51°14.006 2°55.45 348.8 -999 324 -999
2006-04-18 07:30:07 51°14.006 2°55.45 348.8 -999 355 -999
2006-04-18 07:30:13 51°14.006 2°55.451 348.8 -999 265 -999
2006-04-18 07:30:17 51°14.006 2°55.451 348.8 -999 58 -999
2006-04-18 07:30:22 51°14.006 2°55.451 348.9 -999 299 -999
2006-04-18 07:30:27 51°14.006 2°55.451 348.9 -999 338 -999
2006-04-18 07:30:33 51°14.006 2°55.451 348.9 -999 288 -999
2006-04-18 07:30:37 51°14.006 2°55.451 348.9 -999 34 6.2
2006-04-18 07:30:42 51°14.006 2°55.451 348.9 -999 296 -999
2006-04-18 07:30:47 51°14.006 2°55.451 348.9 -999 48 -999
2006-04-18 07:30:53 51°14.006 2°55.45 348.9 -999 275 -999
2006-04-18 07:30:58 51°14.006 2°55.45 348.9 -999 310 -999
2006-04-18 07:31:03 51°14.006 2°55.45 348.9 -999 311 -999
2006-04-18 07:31:07 51°14.006 2°55.45 348.9 -999 260 6.2
2006-04-18 07:31:12 51°14.006 2°55.45 348.9 -999 273 6.2
2006-04-18 07:31:16 51°14.006 2°55.45 348.9 -999 317 -999
2006-04-18 07:31:22 51°14.006 2°55.451 348.9 -999 324 6.2
2006-04-18 07:31:27 51°14.006 2°55.451 348.9 -999 107 6.2
2006-04-18 07:31:32 51°14.006 2°55.451 348.9 -999 194 6.2
2006-04-18 07:31:37 51°14.006 2°55.451 348.9 -999 333 6.2
2006-04-18 07:31:42 51°14.006 2°55.451 348.9 -999 269 6.2
2006-04-18 07:31:47 51°14.006 2°55.451 348.9 -999 40 6.2
2006-04-18 07:31:52 51°14.006 2°55.451 348.9 -999 39 6.2
2006-04-18 07:31:57 51°14.006 2°55.451 348.9 -999 114 6.2
2006-04-18 07:32:02 51°14.006 2°55.451 348.9 -999 158 6.2
2006-04-18 07:32:07 51°14.006 2°55.451 348.9 -999 57 6.2
2006-04-18 07:32:12 51°14.006 2°55.451 348.9 -999 251 6.2
2006-04-18 07:32:17 51°14.006 2°55.45 348.9 -999 195 6.2
2006-04-18 07:32:22 51°14.006 2°55.451 348.9 -999 222 6.2
2006-04-18 07:32:27 51°14.006 2°55.451 348.9 -999 120 6.2
2006-04-18 07:32:31 51°14.006 2°55.451 348.9 -999 86 6.1
2006-04-18 07:32:37 51°14.006 2°55.45 348.8 -999 87 6.2
2006-04-18 07:32:42 51°14.006 2°55.45 348.8 -999 310 6.2
2006-04-18 07:32:46 51°14.006 2°55.45 348.8 -999 37 -999
2006-04-18 07:32:52 51°14.006 2°55.45 348.8 -999 179 6.1
2006-04-18 07:32:56 51°14.006 2°55.45 348.8 -999 165 -999
2006-04-18 07:33:02 51°14.006 2°55.45 348.8 -999 286 6.1
2006-04-18 07:33:07 51°14.006 2°55.45 348.8 -999 22 -999
2006-04-18 07:33:12 51°14.006 2°55.45 348.8 -999 247 6.1
2006-04-18 07:33:16 51°14.006 2°55.45 348.8 -999 329 6.2
2006-04-18 07:33:22 51°14.006 2°55.45 348.8 -999 221 6.1
2006-04-18 07:33:27 51°14.006 2°55.449 348.8 -999 294 -999
2006-04-18 07:33:32 51°14.006 2°55.449 348.8 -999 27 6.2
2006-04-18 07:33:38 51°14.006 2°55.449 348.8 -999 343 -999
2006-04-18 07:33:43 51°14.006 2°55.45 348.8 -999 21 6.2
2006-04-18 07:33:47 51°14.006 2°55.449 348.8 -999 353 6.2
2006-04-18 07:33:52 51°14.006 2°55.449 348.8 -999 331 6.3
2006-04-18 07:33:57 51°14.006 2°55.449 348.8 -999 241 6.2
2006-04-18 07:34:02 51°14.006 2°55.449 348.8 -999 267 -999
2006-04-18 07:34:07 51°14.006 2°55.449 348.8 -999 71 6.2
2006-04-18 07:34:12 51°14.006 2°55.449 348.8 -999 179 6.2
2006-04-18 07:34:18 51°14.006 2°55.449 348.8 -999 172 -999
2006-04-18 07:34:22 51°14.006 2°55.449 348.8 -999 106 6.1
2006-04-18 07:34:27 51°14.006 2°55.449 348.8 -999 14 6.2
2006-04-18 07:34:32 51°14.006 2°55.449 348.8 -999 22 6.1
2006-04-18 07:34:37 51°14.006 2°55.449 348.8 -999 41 6.1
2006-04-18 07:34:42 51°14.006 2°55.449 348.8 0.1 58 6.1
2006-04-18 07:34:47 51°14.006 2°55.449 348.8 0.1 48 -999
2006-04-18 07:34:52 51°14.007 2°55.45 348.8 -999 3 -999
2006-04-18 07:34:57 51°14.007 2°55.45 348.8 -999 318 -999
2006-04-18 07:35:02 51°14.007 2°55.45 348.8 -999 1 -999
2006-04-18 07:35:08 51°14.007 2°55.451 348.9 -999 43 -999
2006-04-18 07:35:12 51°14.007 2°55.451 349.1 -999 272 -999
2006-04-18 07:35:18 51°14.007 2°55.451 349.1 -999 140 -999
2006-04-18 07:35:23 51°14.007 2°55.45 349.1 -999 221 -999
2006-04-18 07:35:27 51°14.007 2°55.45 349.1 -999 153 -999
2006-04-18 07:35:32 51°14.007 2°55.45 349.1 -999 49 -999
2006-04-18 07:35:38 51°14.007 2°55.45 349.1 -999 188 -999
2006-04-18 07:35:42 51°14.007 2°55.45 349.1 -999 21 6.2
2006-04-18 07:35:47 51°14.007 2°55.45 349.1 -999 20 -999
2006-04-18 07:35:52 51°14.007 2°55.45 349.1 -999 37 6.2
2006-04-18 07:35:57 51°14.007 2°55.451 349.1 -999 347 6.2
2006-04-18 07:36:02 51°14.007 2°55.45 349.1 -999 64 6.2
2006-04-18 07:36:07 51°14.007 2°55.45 349.1 -999 47 -999
2006-04-18 07:36:12 51°14.007 2°55.45 349.1 -999 157 6.1
2006-04-18 07:36:18 51°14.007 2°55.45 349.1 -999 332 -999
2006-04-18 07:36:23 51°14.007 2°55.449 349.1 -999 18 6.2
2006-04-18 07:36:27 51°14.006 2°55.449 349.1 -999 51 6.2
2006-04-18 07:36:32 51°14.006 2°55.449 349.1 -999 89 -999
2006-04-18 07:36:37 51°14.006 2°55.449 349.1 -999 137 6.2
2006-04-18 07:36:43 51°14.006 2°55.449 349.1 -999 271 -999
2006-04-18 07:36:48 51°14.007 2°55.449 349.1 -999 338 -999
2006-04-18 07:36:52 51°14.007 2°55.449 349.1 -999 44 6.1
2006-04-18 07:36:57 51°14.007 2°55.449 349.1 -999 286 -999
2006-04-18 07:37:02 51°14.006 2°55.448 349.1 -999 42 6.2
2006-04-18 07:37:07 51°14.006 2°55.448 349.1 -999 85 6.1
2006-04-18 07:37:12 51°14.006 2°55.448 349.1 -999 195 6.2
2006-04-18 07:37:17 51°14.006 2°55.448 349.1 -999 185 6.2
2006-04-18 07:37:22 51°14.006 2°55.448 349.1 -999 305 6.1
2006-04-18 07:37:27 51°14.006 2°55.448 349.1 -999 325 6.1
2006-04-18 07:37:32 51°14.006 2°55.448 349.1 -999 96 6.1
2006-04-18 07:37:37 51°14.006 2°55.448 349.1 0.1 61 6.2
2006-04-18 07:37:42 51°14.006 2°55.448 349.1 -999 51 6.1
2006-04-18 07:37:47 51°14.006 2°55.448 349.1 -999 354 6.1
2006-04-18 07:37:52 51°14.006 2°55.448 349.1 -999 141 -999
2006-04-18 07:37:58 51°14.006 2°55.448 349.2 -999 267 -999
2006-04-18 07:38:03 51°14.006 2°55.448 349.2 -999 343 -999
2006-04-18 07:38:07 51°14.006 2°55.448 349.2 -999 75 6.1
2006-04-18 07:38:12 51°14.006 2°55.448 349.2 -999 29 6.1
2006-04-18 07:38:18 51°14.006 2°55.448 349.2 -999 355 -999
2006-04-18 07:38:22 51°14.006 2°55.448 349.2 -999 277 6.1
2006-04-18 07:38:27 51°14.006 2°55.448 349.2 -999 48 6.1
2006-04-18 07:38:32 51°14.006 2°55.448 349.3 -999 246 6.1
2006-04-18 07:38:37 51°14.006 2°55.448 349.3 -999 75 -999
2006-04-18 07:38:42 51°14.006 2°55.448 349.3 -999 40 -999
2006-04-18 07:38:47 51°14.006 2°55.448 349.3 -999 21 6.1
2006-04-18 07:38:52 51°14.006 2°55.448 349.3 -999 258 -999
2006-04-18 07:38:57 51°14.006 2°55.448 349.3 -999 157 -999
2006-04-18 07:39:03 51°14.006 2°55.448 349.3 -999 265 -999
2006-04-18 07:39:07 51°14.006 2°55.448 349.3 -999 209 6.1
2006-04-18 07:39:11 51°14.006 2°55.448 349.3 -999 70 6.1
2006-04-18 07:39:17 51°14.006 2°55.448 349.3 -999 50 -999
2006-04-18 07:39:22 51°14.006 2°55.448 349.3 -999 275 -999
2006-04-18 07:39:28 51°14.006 2°55.448 349.3 -999 10 -999
2006-04-18 07:39:32 51°14.006 2°55.448 349.3 -999 208 6.1
2006-04-18 07:39:37 51°14.006 2°55.448 349.3 -999 141 -999
2006-04-18 07:39:43 51°14.006 2°55.448 349.3 -999 22 -999
2006-04-18 07:39:47 51°14.006 2°55.448 349.3 -999 84 -999
2006-04-18 07:39:53 51°14.006 2°55.448 349.3 -999 49 -999
2006-04-18 07:39:58 51°14.006 2°55.448 349.3 -999 240 -999
2006-04-18 07:40:02 51°14.006 2°55.449 349.4 -999 277 -999
2006-04-18 07:40:07 51°14.006 2°55.449 349.4 -999 285 6.1
2006-04-18 07:40:12 51°14.006 2°55.449 349.3 -999 65 -999
2006-04-18 07:40:18 51°14.006 2°55.449 349.3 -999 241 -999
2006-04-18 07:40:23 51°14.007 2°55.449 349.3 -999 281 -999
2006-04-18 07:40:27 51°14.007 2°55.45 349.3 -999 321 6.1
2006-04-18 07:40:31 51°14.006 2°55.449 349.3 -999 42 6.1
2006-04-18 07:40:38 51°14.007 2°55.45 349.3 0.1 50 -999
2006-04-18 07:40:42 51°14.006 2°55.45 349.3 -999 61 -999
2006-04-18 07:40:47 51°14.006 2°55.45 349.3 -999 222 6.1
2006-04-18 07:40:52 51°14.006 2°55.45 349.3 -999 91 -999
2006-04-18 07:40:58 51°14.007 2°55.45 349.3 -999 226 -999
2006-04-18 07:41:03 51°14.007 2°55.45 349.3 -999 264 6.1
2006-04-18 07:41:07 51°14.007 2°55.45 349.3 -999 200 -999
2006-04-18 07:41:12 51°14.007 2°55.45 349.3 -999 203 -999
2006-04-18 07:41:17 51°14.007 2°55.45 349.3 -999 225 6.1
2006-04-18 07:41:22 51°14.007 2°55.45 349.3 -999 357 -999
2006-04-18 07:41:27 51°14.007 2°55.45 349.3 -999 54 6.1
2006-04-18 07:41:32 51°14.007 2°55.45 349.3 -999 72 6.1
2006-04-18 07:41:37 51°14.007 2°55.45 349.3 -999 32 6.1
2006-04-18 07:41:42 51°14.006 2°55.45 349.3 -999 175 -999
2006-04-18 07:41:48 51°14.006 2°55.45 349.3 -999 181 -999
2006-04-18 07:41:52 51°14.006 2°55.45 349.3 -999 146 6.1
2006-04-18 07:41:58 51°14.006 2°55.45 349.3 -999 110 -999
2006-04-18 07:42:03 51°14.006 2°55.45 349.3 -999 86 -999
2006-04-18 07:42:07 51°14.006 2°55.45 349.4 -999 122 -999
2006-04-18 07:42:12 51°14.006 2°55.449 349.4 -999 12 -999
2006-04-18 07:42:18 51°14.006 2°55.449 349.4 -999 294 -999
2006-04-18 07:42:22 51°14.006 2°55.449 349.4 -999 286 6.1
2006-04-18 07:42:28 51°14.006 2°55.449 349.4 -999 101 -999
2006-04-18 07:42:33 51°14.006 2°55.449 349.4 -999 52 -999
2006-04-18 07:42:38 51°14.006 2°55.449 349.4 -999 268 6.1
2006-04-18 07:42:43 51°14.006 2°55.449 349.4 -999 299 -999
2006-04-18 07:42:47 51°14.006 2°55.45 349.4 -999 24 -999
2006-04-18 07:42:52 51°14.006 2°55.45 349.4 -999 316 6.1
2006-04-18 07:42:58 51°14.006 2°55.449 349.4 -999 321 -999
2006-04-18 07:43:02 51°14.006 2°55.449 349.4 -999 286 6.1
2006-04-18 07:43:07 51°14.006 2°55.449 349.4 -999 242 -999
2006-04-18 07:43:12 51°14.006 2°55.449 349.4 -999 297 6.1
2006-04-18 07:43:17 51°14.006 2°55.449 349.4 -999 134 -999
2006-04-18 07:43:23 51°14.006 2°55.449 349.4 -999 120 -999
2006-04-18 07:43:28 51°14.006 2°55.449 349.4 -999 272 -999
2006-04-18 07:43:32 51°14.006 2°55.449 349.4 -999 283 6.1
2006-04-18 07:43:37 51°14.006 2°55.449 349.4 -999 128 -999
2006-04-18 07:43:43 51°14.006 2°55.449 349.4 -999 298 -999
2006-04-18 07:43:48 51°14.006 2°55.449 349.4 0.1 288 -999
2006-04-18 07:43:52 51°14.006 2°55.449 349.4 -999 47 -999
2006-04-18 07:43:57 51°14.006 2°55.449 349.4 -999 2 6
2006-04-18 07:44:02 51°14.006 2°55.449 349.4 -999 330 -999
2006-04-18 07:44:08 51°14.006 2°55.449 349.4 -999 242 -999
2006-04-18 07:44:13 51°14.006 2°55.449 349.4 -999 100 -999
2006-04-18 07:44:18 51°14.005 2°55.449 349.4 -999 328 -999
2006-04-18 07:44:23 51°14.005 2°55.448 349.4 -999 273 -999
2006-04-18 07:44:27 51°14.005 2°55.448 349.4 -999 107 -999
2006-04-18 07:44:33 51°14.005 2°55.448 349.4 -999 18 -999
2006-04-18 07:44:38 51°14.005 2°55.447 349.4 0.1 286 -999
2006-04-18 07:44:42 51°14.005 2°55.448 349.4 -999 35 -999
2006-04-18 07:44:47 51°14.005 2°55.448 349.4 -999 129 -999
2006-04-18 07:44:53 51°14.005 2°55.448 349.4 -999 267 -999
2006-04-18 07:44:58 51°14.005 2°55.448 349.4 -999 23 -999
2006-04-18 07:45:03 51°14.005 2°55.448 349.4 -999 307 -999
2006-04-18 07:45:08 51°14.005 2°55.449 349.4 -999 317 6.1
2006-04-18 07:45:12 51°14.005 2°55.449 349.4 -999 -999 -999
2006-04-18 07:45:17 51°14.005 2°55.449 349.4 -999 302 6
2006-04-18 07:45:22 51°14.005 2°55.449 349.4 -999 55 -999
2006-04-18 07:45:27 51°14.005 2°55.449 349.4 -999 311 -999
2006-04-18 07:45:33 51°14.005 2°55.449 349.4 -999 338 -999
2006-04-18 07:45:37 51°14.005 2°55.449 349.4 -999 301 -999
2006-04-18 07:45:43 51°14.006 2°55.449 349.4 -999 316 -999
2006-04-18 07:45:48 51°14.006 2°55.449 349.4 -999 308 -999
2006-04-18 07:45:53 51°14.006 2°55.45 349.4 -999 324 -999
2006-04-18 07:45:58 51°14.006 2°55.45 349.4 -999 344 -999
2006-04-18 07:46:02 51°14.006 2°55.45 349.4 -999 154 6
2006-04-18 07:46:07 51°14.006 2°55.451 349.4 -999 104 -999
2006-04-18 07:46:13 51°14.006 2°55.45 349.4 -999 250 -999
2006-04-18 07:46:18 51°14.006 2°55.45 349.4 -999 316 -999
2006-04-18 07:46:23 51°14.006 2°55.45 349.4 -999 61 -999
2006-04-18 07:46:27 51°14.005 2°55.45 349.4 -999 263 -999
2006-04-18 07:46:33 51°14.005 2°55.45 349.4 -999 302 -999
2006-04-18 07:46:38 51°14.005 2°55.449 349.4 -999 307 -999
2006-04-18 07:46:43 51°14.005 2°55.449 349.4 -999 101 -999
2006-04-18 07:46:47 51°14.005 2°55.449 349.4 -999 333 -999
2006-04-18 07:46:53 51°14.005 2°55.45 349.4 -999 83 -999
2006-04-18 07:46:58 51°14.005 2°55.45 349.4 -999 296 -999
2006-04-18 07:47:03 51°14.005 2°55.45 349.4 -999 307 -999
2006-04-18 07:47:07 51°14.005 2°55.45 349.4 -999 294 6
2006-04-18 07:47:12 51°14.005 2°55.45 349.4 -999 306 -999
2006-04-18 07:47:18 51°14.006 2°55.45 349.4 -999 295 -999
2006-04-18 07:47:23 51°14.006 2°55.45 349.4 -999 36 -999
2006-04-18 07:47:28 51°14.006 2°55.45 349.4 -999 15 -999
2006-04-18 07:47:32 51°14.006 2°55.45 349.4 -999 222 -999
2006-04-18 07:47:38 51°14.006 2°55.45 349.4 -999 352 -999
2006-04-18 07:47:43 51°14.005 2°55.45 349.4 -999 305 -999
2006-04-18 07:47:47 51°14.005 2°55.45 349.5 -999 95 -999
2006-04-18 07:47:53 51°14.005 2°55.45 349.5 -999 44 -999
2006-04-18 07:47:57 51°14.005 2°55.45 349.5 -999 304 -999
2006-04-18 07:48:03 51°14.005 2°55.449 349.5 -999 279 -999
2006-04-18 07:48:08 51°14.005 2°55.449 349.5 -999 211 -999
2006-04-18 07:48:12 51°14.005 2°55.449 349.5 -999 129 -999
2006-04-18 07:48:17 51°14.005 2°55.449 349.5 -999 262 -999
2006-04-18 07:48:22 51°14.005 2°55.45 349.5 -999 89 -999
2006-04-18 07:48:28 51°14.005 2°55.45 349.5 -999 277 -999
2006-04-18 07:48:33 51°14.005 2°55.45 349.5 -999 86 -999
2006-04-18 07:48:38 51°14.005 2°55.449 349.5 -999 220 -999
2006-04-18 07:48:43 51°14.005 2°55.45 349.5 -999 271 -999
2006-04-18 07:48:48 51°14.005 2°55.45 349.5 -999 68 -999
2006-04-18 07:48:53 51°14.005 2°55.45 349.5 -999 65 -999
2006-04-18 07:48:58 51°14.006 2°55.451 349.5 -999 84 -999
2006-04-18 07:49:03 51°14.006 2°55.451 349.5 0.1 107 -999
2006-04-18 07:49:07 51°14.006 2°55.451 349.5 -999 90 -999
2006-04-18 07:49:13 51°14.006 2°55.45 349.5 -999 306 -999
2006-04-18 07:49:18 51°14.006 2°55.451 349.5 -999 288 -999
2006-04-18 07:49:23 51°14.006 2°55.45 349.5 -999 312 -999
2006-04-18 07:49:27 51°14.006 2°55.451 349.5 -999 350 -999
2006-04-18 07:49:33 51°14.006 2°55.45 349.5 -999 9 -999
2006-04-18 07:49:38 51°14.005 2°55.45 349.5 -999 354 -999
2006-04-18 07:49:43 51°14.005 2°55.45 349.5 -999 358 -999
2006-04-18 07:49:47 51°14.005 2°55.45 349.5 -999 339 -999
2006-04-18 07:49:53 51°14.005 2°55.45 349.5 -999 326 -999
2006-04-18 07:49:57 51°14.005 2°55.45 349.5 -999 105 -999
2006-04-18 07:50:03 51°14.005 2°55.45 349.5 -999 151 -999
2006-04-18 07:50:08 51°14.005 2°55.45 349.5 -999 19 -999
2006-04-18 07:50:13 51°14.005 2°55.45 349.5 -999 331 -999
2006-04-18 07:50:18 51°14.005 2°55.45 349.5 -999 321 -999
2006-04-18 07:50:23 51°14.005 2°55.451 349.5 -999 50 -999
2006-04-18 07:50:27 51°14.006 2°55.451 349.6 -999 300 -999
2006-04-18 07:50:32 51°14.006 2°55.451 349.6 -999 326 -999
2006-04-18 07:50:38 51°14.006 2°55.451 349.6 -999 241 -999
2006-04-18 07:50:43 51°14.006 2°55.451 349.6 -999 289 -999
2006-04-18 07:50:48 51°14.005 2°55.45 349.6 -999 307 -999
2006-04-18 07:50:53 51°14.005 2°55.45 349.6 -999 62 -999
2006-04-18 07:50:58 51°14.005 2°55.45 349.6 -999 260 -999
2006-04-18 07:51:03 51°14.005 2°55.449 349.6 -999 245 -999
2006-04-18 07:51:07 51°14.004 2°55.449 349.6 -999 236 -999
2006-04-18 07:51:13 51°14.004 2°55.449 349.6 -999 173 -999
2006-04-18 07:51:18 51°14.004 2°55.449 349.6 -999 134 -999
2006-04-18 07:51:22 51°14.004 2°55.448 349.6 -999 92 -999
2006-04-18 07:51:27 51°14.004 2°55.448 349.6 -999 -999 6
2006-04-18 07:51:32 51°14.004 2°55.448 349.6 -999 110 -999
2006-04-18 07:51:38 51°14.004 2°55.448 349.6 -999 116 -999
2006-04-18 07:51:42 51°14.004 2°55.448 349.6 -999 104 -999
2006-04-18 07:51:47 51°14.004 2°55.448 349.6 -999 29 5.9
2006-04-18 07:51:52 51°14.005 2°55.45 349.6 -999 347 -999
2006-04-18 07:51:57 51°14.006 2°55.451 349.6 -999 85 5.9
2006-04-18 07:52:03 51°14.007 2°55.452 349.6 -999 31 -999
2006-04-18 07:52:07 51°14.007 2°55.452 349.6 -999 336 -999
2006-04-18 07:52:12 51°14.007 2°55.452 349.6 -999 30 6
2006-04-18 07:52:17 51°14.007 2°55.452 349.6 -999 73 5.9
2006-04-18 07:52:22 51°14.007 2°55.451 349.6 -999 222 -999
2006-04-18 07:52:27 51°14.007 2°55.451 349.6 -999 108 5.9
2006-04-18 07:52:32 51°14.007 2°55.451 349.6 -999 70 5.9
2006-04-18 07:52:37 51°14.007 2°55.452 349.6 0.1 50 -999
2006-04-18 07:52:43 51°14.007 2°55.452 349.6 -999 16 -999
2006-04-18 07:52:48 51°14.007 2°55.452 349.6 -999 63 -999
2006-04-18 07:52:52 51°14.007 2°55.452 349.6 -999 328 5.9
2006-04-18 07:52:57 51°14.007 2°55.452 349.6 -999 280 5.9
2006-04-18 07:53:02 51°14.007 2°55.452 349.6 -999 51 -999
2006-04-18 07:53:08 51°14.007 2°55.451 349.6 -999 94 -999
2006-04-18 07:53:12 51°14.006 2°55.451 349.6 -999 60 5.9
2006-04-18 07:53:17 51°14.006 2°55.45 349.6 -999 -999 5.9
2006-04-18 07:53:22 51°14.006 2°55.45 349.6 -999 17 -999
2006-04-18 07:53:27 51°14.006 2°55.45 349.6 -999 265 6
2006-04-18 07:53:32 51°14.006 2°55.45 349.6 -999 179 -999
2006-04-18 07:53:37 51°14.006 2°55.45 349.6 -999 40 5.9
2006-04-18 07:53:42 51°14.006 2°55.449 349.6 -999 337 5.9
2006-04-18 07:53:47 51°14.006 2°55.45 349.6 -999 247 5.9
2006-04-18 07:53:52 51°14.006 2°55.45 349.6 -999 26 -999
2006-04-18 07:53:58 51°14.006 2°55.45 349.6 -999 318 -999
2006-04-18 07:54:03 51°14.006 2°55.45 349.6 -999 88 5.9
2006-04-18 07:54:07 51°14.006 2°55.45 349.6 -999 18 5.9
2006-04-18 07:54:12 51°14.006 2°55.449 349.6 -999 309 5.9
2006-04-18 07:54:18 51°14.006 2°55.449 349.6 -999 334 -999
2006-04-18 07:54:23 51°14.006 2°55.449 349.6 -999 315 -999
2006-04-18 07:54:27 51°14.006 2°55.449 349.6 -999 281 5.9
2006-04-18 07:54:32 51°14.006 2°55.449 349.6 -999 123 5.9
2006-04-18 07:54:37 51°14.006 2°55.449 349.6 -999 331 5.9
2006-04-18 07:54:42 51°14.006 2°55.449 349.6 -999 18 5.9
2006-04-18 07:54:47 51°14.006 2°55.449 349.6 -999 351 -999
2006-04-18 07:54:52 51°14.005 2°55.448 349.6 -999 310 5.9
2006-04-18 07:54:57 51°14.005 2°55.448 349.6 -999 222 5.9
2006-04-18 07:55:02 51°14.005 2°55.448 349.6 -999 258 6
2006-04-18 07:55:07 51°14.006 2°55.449 349.6 -999 3 5.9
2006-04-18 07:55:12 51°14.006 2°55.449 349.6 -999 307 5.9
2006-04-18 07:55:17 51°14.006 2°55.449 349.7 -999 315 5.9
2006-04-18 07:55:22 51°14.006 2°55.449 349.7 -999 162 5.9
2006-04-18 07:55:27 51°14.006 2°55.449 349.7 0.1 94 5.9
2006-04-18 07:55:32 51°14.006 2°55.45 349.7 -999 20 5.9
2006-04-18 07:55:37 51°14.006 2°55.45 349.7 -999 223 5.9
2006-04-18 07:55:42 51°14.006 2°55.449 349.7 -999 226 -999
2006-04-18 07:55:47 51°14.005 2°55.449 349.7 -999 135 -999
2006-04-18 07:55:52 51°14.005 2°55.449 349.7 -999 41 6
2006-04-18 07:55:57 51°14.006 2°55.449 349.8 -999 321 5.9
2006-04-18 07:56:02 51°14.006 2°55.449 349.8 -999 291 5.9
2006-04-18 07:56:07 51°14.006 2°55.45 349.8 -999 201 5.9
2006-04-18 07:56:12 51°14.006 2°55.45 349.8 -999 85 5.9
2006-04-18 07:56:16 51°14.007 2°55.45 349.8 -999 178 5.9
2006-04-18 07:56:22 51°14.007 2°55.451 349.8 -999 299 5.9
2006-04-18 07:56:27 51°14.007 2°55.45 349.8 -999 294 5.9
2006-04-18 07:56:32 51°14.007 2°55.45 349.8 -999 94 5.9
2006-04-18 07:56:37 51°14.007 2°55.45 349.8 -999 125 5.9
2006-04-18 07:56:42 51°14.006 2°55.45 349.8 -999 290 5.9
2006-04-18 07:56:47 51°14.006 2°55.449 349.8 -999 330 5.9
2006-04-18 07:56:52 51°14.006 2°55.45 349.8 -999 2 5.9
2006-04-18 07:56:57 51°14.006 2°55.45 349.8 -999 80 5.9
2006-04-18 07:57:02 51°14.006 2°55.449 349.8 -999 328 5.9
2006-04-18 07:57:07 51°14.006 2°55.449 349.8 -999 69 5.9
2006-04-18 07:57:12 51°14.006 2°55.449 349.8 -999 349 5.9
2006-04-18 07:57:17 51°14.006 2°55.449 349.8 -999 21 5.9
2006-04-18 07:57:22 51°14.006 2°55.449 349.8 -999 80 5.9
2006-04-18 07:57:27 51°14.006 2°55.449 349.8 -999 1 5.9
2006-04-18 07:57:32 51°14.006 2°55.449 349.8 -999 296 5.9
2006-04-18 07:57:37 51°14.006 2°55.449 349.8 -999 152 5.9
2006-04-18 07:57:42 51°14.006 2°55.45 349.8 -999 100 5.9
2006-04-18 07:57:47 51°14.006 2°55.45 349.8 -999 18 5.9
2006-04-18 07:57:51 51°14.006 2°55.45 349.8 -999 300 5.9
2006-04-18 07:57:57 51°14.006 2°55.449 349.8 -999 28 5.9
2006-04-18 07:58:02 51°14.006 2°55.449 349.8 -999 85 5.9
2006-04-18 07:58:07 51°14.005 2°55.449 349.8 -999 128 5.9
2006-04-18 07:58:12 51°14.006 2°55.449 349.8 -999 82 5.9
2006-04-18 07:58:17 51°14.006 2°55.449 349.8 -999 76 5.9
2006-04-18 07:58:22 51°14.006 2°55.449 349.8 -999 161 5.9
2006-04-18 07:58:27 51°14.006 2°55.45 349.8 -999 205 5.9
2006-04-18 07:58:32 51°14.006 2°55.45 349.8 -999 318 5.9
2006-04-18 07:58:37 51°14.006 2°55.45 349.8 -999 297 5.9
2006-04-18 07:58:42 51°14.006 2°55.449 349.8 -999 130 5.9
2006-04-18 07:58:47 51°14.006 2°55.449 349.8 -999 131 5.9
2006-04-18 07:58:52 51°14.006 2°55.45 349.8 -999 49 5.9
2006-04-18 07:58:57 51°14.006 2°55.45 349.8 -999 8 5.9
2006-04-18 07:59:02 51°14.006 2°55.45 349.8 -999 42 5.9
2006-04-18 07:59:07 51°14.006 2°55.45 349.8 -999 27 5.9
2006-04-18 07:59:12 51°14.006 2°55.45 349.8 -999 3 5.9
2006-04-18 07:59:17 51°14.006 2°55.45 349.8 -999 16 5.9
2006-04-18 07:59:22 51°14.006 2°55.45 349.8 -999 45 5.9
2006-04-18 07:59:27 51°14.006 2°55.45 349.8 -999 232 5.9
2006-04-18 07:59:32 51°14.006 2°55.449 349.8 -999 66 5.9
2006-04-18 07:59:37 51°14.006 2°55.449 349.8 0.1 61 -999